createdAt,value
2019-04-23T00:03:06.501Z,6.05
2019-04-23T00:08:19.595Z,3.70
2019-04-23T00:13:24.750Z,2.97
2019-04-23T00:18:22.277Z,7.50
2019-04-23T00:23:25.577Z,10.33
2019-04-23T00:28:36.041Z,5.35
2019-04-23T00:33:31.420Z,7.35
2019-04-23T00:38:39.958Z,3.58
2019-04-23T00:43:47.509Z,3.33
2019-04-23T00:53:43.751Z,7.23
2019-04-23T00:58:49.505Z,3.62
2019-04-23T01:03:53.436Z,6.45
2019-04-23T01:08:55.099Z,3.47
2019-04-23T01:14:03.965Z,5.40
2019-04-23T01:19:28.019Z,7.90
2019-04-23T01:23:54.443Z,4.90
2019-04-23T01:29:12.613Z,7.57
2019-04-23T01:34:27.595Z,5.97
2019-04-23T01:39:23.133Z,7.73
2019-04-23T01:44:32.756Z,12.57
2019-04-23T01:49:37.584Z,8.17
2019-04-23T01:54:38.596Z,5.27
2019-04-23T01:59:39.212Z,4.67
2019-04-23T02:04:47.799Z,6.00
2019-04-23T02:09:48.534Z,7.47
2019-04-23T02:14:51.775Z,5.40
2019-04-23T02:19:59.529Z,8.43
2019-04-23T02:25:01.933Z,8.07
2019-04-23T02:30:15.646Z,5.20
2019-04-23T02:35:32.696Z,6.60
2019-04-23T02:40:17.039Z,5.27
2019-04-23T02:45:16.941Z,10.63
2019-04-23T02:50:34.640Z,7.73
2019-04-23T02:55:29.259Z,4.93
2019-04-23T03:00:28.843Z,6.77
2019-04-23T03:05:38.102Z,7.93
2019-04-23T03:10:42.002Z,7.23
2019-04-23T03:20:51.668Z,6.03
2019-04-23T03:25:45.449Z,6.40
2019-04-23T03:32:04.574Z,6.27
2019-04-23T03:51:16.369Z,5.30
2019-04-23T03:56:18.889Z,7.00
2019-04-23T04:01:19.772Z,13.30
2019-04-23T04:06:37.515Z,10.70
2019-04-23T04:11:18.186Z,4.17
2019-04-23T04:16:18.245Z,10.27
2019-04-23T04:26:37.778Z,5.80
2019-04-23T04:31:45.705Z,8.10
2019-04-23T04:41:40.728Z,12.03
2019-04-23T04:52:00.278Z,11.70
2019-04-23T04:56:51.314Z,5.77
2019-04-23T05:02:00.466Z,8.73
2019-04-23T05:17:06.703Z,9.13
2019-04-23T05:27:06.068Z,7.00
2019-04-23T05:32:05.786Z,5.57
2019-04-23T05:37:14.686Z,7.93
2019-04-23T05:42:34.013Z,9.63
2019-04-23T05:47:25.425Z,7.67
2019-04-23T05:52:24.232Z,8.17
2019-04-23T05:57:28.486Z,9.53
2019-04-23T06:02:33.841Z,10.23
2019-04-23T06:07:47.871Z,6.90
2019-04-23T06:12:39.946Z,9.87
2019-04-23T06:17:41.124Z,11.90
2019-04-23T06:27:54.966Z,9.57
2019-04-23T06:32:57.166Z,7.30
2019-04-23T06:43:00.971Z,9.90
2019-04-23T06:48:08.997Z,19.63
2019-04-23T06:53:02.016Z,11.33
2019-04-23T06:58:15.689Z,9.77
2019-04-23T07:03:15.055Z,10.18
2019-04-23T07:08:30.641Z,10.30
2019-04-23T07:13:34.375Z,11.20
2019-04-23T07:18:24.327Z,27.27
2019-04-23T07:23:38.047Z,11.90
2019-04-23T07:28:39.242Z,9.68
2019-04-23T07:33:46.875Z,14.85
2019-04-23T07:39:01.267Z,13.60
2019-04-23T07:43:58.934Z,9.90
2019-04-23T07:48:48.042Z,13.35
2019-04-23T07:54:01.751Z,11.28
2019-04-23T07:59:01.174Z,14.25
2019-04-23T08:04:03.092Z,10.18
2019-04-23T08:09:06.278Z,16.10
2019-04-23T08:14:08.373Z,20.10
2019-04-23T08:19:05.703Z,13.75
2019-04-23T08:24:11.992Z,22.22
2019-04-23T08:29:24.062Z,10.25
2019-04-23T08:34:31.492Z,15.40
2019-04-23T08:39:28.340Z,15.05
2019-04-23T08:44:39.582Z,15.10
2019-04-23T08:49:44.221Z,13.55
2019-04-23T08:59:43.520Z,14.33
2019-04-23T09:04:53.868Z,11.57
2019-04-23T09:09:53.654Z,14.18
2019-04-23T09:15:05.637Z,14.98
2019-04-23T09:20:13.245Z,14.23
2019-04-23T09:25:06.610Z,12.47
2019-04-23T09:30:09.395Z,16.30
2019-04-23T09:35:14.421Z,13.22
2019-04-23T09:40:20.413Z,15.25
2019-04-23T09:45:17.223Z,16.65
2019-04-23T09:50:23.443Z,12.70
2019-04-23T10:00:33.012Z,13.90
2019-04-23T10:05:13.990Z,18.25
2019-04-23T10:10:05.503Z,13.68
2019-04-23T10:15:15.440Z,12.15
2019-04-23T10:20:11.085Z,13.03
2019-04-23T10:25:12.973Z,13.45
2019-04-23T10:30:14.727Z,15.72
2019-04-23T10:35:28.933Z,16.32
2019-04-23T10:40:25.953Z,17.95
2019-04-23T10:45:34.938Z,21.60
2019-04-23T10:50:51.174Z,20.15
2019-04-23T11:01:04.565Z,18.23
2019-04-23T11:11:14.701Z,14.10
2019-04-23T11:21:24.074Z,17.52
2019-04-23T11:26:31.760Z,12.55
2019-04-23T11:31:32.028Z,14.85
2019-04-23T11:41:51.692Z,31.05
2019-04-23T11:51:54.026Z,16.37
2019-04-23T12:06:55.872Z,12.03
2019-04-23T12:27:06.151Z,18.50
2019-04-23T12:32:23.379Z,12.70
2019-04-23T12:37:19.643Z,17.57
2019-04-23T12:42:38.349Z,18.00
2019-04-23T12:47:41.860Z,18.37
2019-04-23T12:52:32.532Z,16.85
2019-04-23T12:57:29.775Z,14.63
2019-04-23T13:02:39.780Z,10.45
2019-04-23T13:07:38.078Z,12.88
2019-04-23T13:12:45.959Z,14.58
2019-04-23T13:22:49.424Z,17.25
2019-04-23T13:27:53.995Z,12.95
2019-04-23T13:32:55.898Z,14.63
2019-04-23T13:37:58.999Z,14.53
2019-04-23T13:43:00.939Z,10.88
2019-04-23T13:53:24.142Z,15.65
2019-04-23T14:03:17.599Z,17.05
2019-04-23T14:08:23.224Z,10.78
2019-04-23T14:13:37.079Z,11.12
2019-04-23T14:28:34.338Z,12.00
2019-04-23T14:38:41.478Z,15.28
2019-04-23T14:43:48.727Z,13.93
2019-04-23T14:48:46.521Z,9.78
2019-04-23T15:03:50.087Z,9.20
2019-04-23T15:09:10.932Z,8.85
2019-04-23T15:14:05.341Z,12.63
2019-04-23T15:19:31.640Z,6.97
2019-04-23T15:24:15.686Z,16.15
2019-04-23T15:28:57.032Z,11.28
2019-04-23T15:34:17.748Z,10.58
2019-04-23T15:44:16.114Z,11.00
2019-04-23T15:49:32.254Z,12.60
2019-04-23T15:54:35.715Z,12.95
2019-04-23T15:59:44.106Z,14.10
2019-04-23T16:04:11.275Z,10.90
2019-04-23T16:09:42.229Z,12.88
2019-04-23T16:14:47.915Z,10.90
2019-04-23T16:19:52.923Z,10.40
2019-04-23T16:24:59.862Z,19.35
2019-04-23T16:35:12.263Z,17.45
2019-04-23T16:40:13.879Z,11.22
2019-04-23T16:45:14.932Z,11.53
2019-04-23T16:50:11.452Z,12.68
2019-04-23T17:05:24.908Z,16.85
2019-04-23T17:10:30.981Z,9.03
2019-04-23T17:15:33.310Z,12.78
2019-04-23T17:20:40.794Z,14.03
2019-04-23T17:25:41.806Z,14.47
2019-04-23T17:36:07.108Z,13.93
2019-04-23T17:41:01.620Z,12.13
2019-04-23T17:45:54.397Z,17.80
2019-04-23T17:51:02.849Z,12.90
2019-04-23T17:56:18.442Z,12.63
2019-04-23T18:01:20.136Z,14.53
2019-04-23T18:06:28.299Z,13.65
2019-04-23T18:11:25.552Z,17.85
2019-04-23T18:16:41.688Z,15.65
2019-04-23T18:26:38.657Z,16.17
2019-04-23T18:31:44.603Z,18.37
2019-04-23T18:36:43.843Z,17.92
2019-04-23T18:41:52.387Z,14.05
2019-04-23T18:46:49.058Z,14.25
2019-04-23T18:52:04.734Z,16.50
2019-04-23T18:57:09.315Z,16.55
2019-04-23T19:02:06.642Z,14.87
2019-04-23T19:07:07.187Z,24.27
2019-04-23T19:12:19.741Z,16.52
2019-04-23T19:17:43.684Z,15.70
2019-04-23T19:22:29.228Z,16.80
2019-04-23T19:27:28.614Z,24.77
2019-04-23T19:32:28.343Z,16.17
2019-04-23T19:37:46.768Z,16.40
2019-04-23T19:42:36.549Z,27.80
2019-04-23T19:47:45.887Z,18.12
2019-04-23T19:52:55.006Z,21.90
2019-04-23T19:57:54.942Z,19.23
2019-04-23T20:07:54.941Z,21.12
2019-04-23T20:12:44.590Z,20.27
2019-04-23T20:18:11.621Z,18.98
2019-04-23T20:22:55.615Z,15.50
2019-04-23T20:28:33.683Z,18.45
2019-04-23T20:33:48.546Z,20.32
2019-04-23T20:43:18.980Z,22.20
2019-04-23T20:48:25.324Z,21.45
2019-04-23T20:53:28.358Z,19.62
2019-04-23T20:58:34.402Z,25.68
2019-04-23T21:08:52.132Z,21.70
2019-04-23T21:14:12.465Z,20.97
2019-04-23T21:23:50.419Z,19.23
2019-04-23T21:28:54.314Z,16.97
2019-04-23T21:33:59.280Z,20.10
2019-04-23T21:39:03.268Z,19.55
2019-04-23T21:44:10.156Z,18.85
2019-04-23T21:49:18.087Z,20.05
2019-04-23T21:54:02.060Z,23.98
2019-04-23T21:59:16.687Z,22.13
2019-04-23T22:04:39.987Z,20.57
2019-04-23T22:09:22.550Z,24.98
2019-04-23T22:19:19.772Z,21.93
2019-04-23T22:24:25.117Z,26.00
2019-04-23T22:29:37.753Z,27.02
2019-04-23T22:34:43.283Z,27.48
2019-04-23T22:39:39.978Z,22.17
2019-04-23T22:45:05.328Z,25.52
2019-04-23T22:49:56.963Z,23.42
2019-04-23T22:54:56.832Z,23.47
2019-04-23T23:00:03.933Z,23.70
2019-04-23T23:05:10.305Z,23.95
2019-04-23T23:10:09.025Z,26.30
2019-04-23T23:15:08.047Z,26.30
2019-04-23T23:25:18.892Z,22.20
2019-04-23T23:30:19.604Z,21.73
2019-04-23T23:40:30.278Z,22.93
2019-04-23T23:45:25.705Z,27.22
